Time;durP1;ratioP1;P1;durP2;ratioP2;P2;SDS_P1;SDS_P2;PMS_P1;PMS_P2;Temp;Humidity;BMP_temperature;BMP_pressure;BME280_temperature;BME280_humidity;BME280_pressure;Samples;Min_cycle;Max_cycle;Signal;HPM_P1;HPM_P2
2023/07/01 00:01:46;;;;;;;3.50;3.30;;;18.90;99.90;;;;;;5070052;28;20863;-75
2023/07/01 00:04:13;;;;;;;3.70;3.50;;;18.90;99.90;;;;;;5058500;28;20233;-75
2023/07/01 00:06:41;;;;;;;3.47;3.17;;;18.90;99.90;;;;;;5068139;28;20221;-76
2023/07/01 00:09:10;;;;;;;3.83;3.53;;;18.90;99.90;;;;;;5059149;28;20194;-76
2023/07/01 00:11:38;;;;;;;4.30;3.95;;;18.90;99.90;;;;;;5055909;28;20309;-75
2023/07/01 00:14:05;;;;;;;3.55;3.28;;;18.90;99.90;;;;;;5052998;28;20281;-75
2023/07/01 00:16:32;;;;;;;3.80;3.50;;;18.90;99.90;;;;;;5058183;28;20191;-74
2023/07/01 00:18:59;;;;;;;3.92;3.63;;;18.90;99.90;;;;;;5055162;28;20203;-75
2023/07/01 00:21:26;;;;;;;4.50;4.10;;;18.80;99.90;;;;;;5060106;28;20267;-75
2023/07/01 00:23:53;;;;;;;3.97;3.67;;;18.80;99.90;;;;;;5057483;28;20777;-75
2023/07/01 00:26:21;;;;;;;4.07;3.78;;;18.80;99.90;;;;;;5059966;28;20623;-75
2023/07/01 00:28:48;;;;;;;4.43;4.13;;;18.80;99.90;;;;;;5061586;28;20198;-75
2023/07/01 00:31:15;;;;;;;4.80;4.35;;;18.70;99.90;;;;;;5056911;28;20276;-75
2023/07/01 00:33:42;;;;;;;5.28;3.90;;;18.70;99.90;;;;;;5062123;28;20229;-75
2023/07/01 00:36:09;;;;;;;3.90;3.60;;;18.60;99.90;;;;;;5062643;28;20241;-75
2023/07/01 00:38:36;;;;;;;3.92;3.63;;;18.70;99.90;;;;;;5068673;28;20650;-76
2023/07/01 00:41:03;;;;;;;4.07;3.78;;;18.70;99.90;;;;;;5065921;28;20218;-75
2023/07/01 00:43:31;;;;;;;4.10;3.80;;;18.70;99.90;;;;;;5061545;28;20202;-75
2023/07/01 00:45:58;;;;;;;4.68;3.72;;;18.80;99.90;;;;;;5060706;28;20268;-75
2023/07/01 00:48:27;;;;;;;4.68;4.28;;;18.80;99.90;;;;;;5061854;28;20696;-75
2023/07/01 00:50:54;;;;;;;3.83;3.53;;;18.80;99.90;;;;;;5058602;28;20253;-76
2023/07/01 00:53:22;;;;;;;4.47;4.10;;;18.90;99.90;;;;;;5060394;28;20203;-74
2023/07/01 00:55:49;;;;;;;4.50;4.10;;;18.90;99.90;;;;;;5060775;28;20649;-75
2023/07/01 00:58:16;;;;;;;4.82;4.43;;;18.90;99.90;;;;;;5054448;28;20281;-75
2023/07/01 01:00:45;;;;;;;4.65;4.25;;;18.80;99.90;;;;;;5060696;28;20324;-75
2023/07/01 01:03:22;;;;;;;4.50;4.13;;;18.80;99.90;;;;;;5070799;28;20233;-75
2023/07/01 01:06:01;;;;;;;4.15;3.83;;;18.70;99.90;;;;;;5057179;28;20225;-75
2023/07/01 01:08:35;;;;;;;4.20;3.80;;;18.70;99.90;;;;;;5058930;28;22361;-75
2023/07/01 01:11:03;;;;;;;4.70;4.20;;;18.70;99.90;;;;;;5060046;28;20230;-75
2023/07/01 01:13:31;;;;;;;4.75;4.35;;;18.70;99.90;;;;;;5055110;28;20230;-75
2023/07/01 01:16:02;;;;;;;4.20;3.80;;;18.70;99.90;;;;;;5062148;28;20243;-75
2023/07/01 01:18:32;;;;;;;4.63;4.22;;;18.70;99.90;;;;;;5055727;28;20595;-75
2023/07/01 01:20:59;;;;;;;4.43;4.07;;;18.70;99.90;;;;;;5060059;28;20696;-75
2023/07/01 01:23:28;;;;;;;4.30;3.70;;;18.70;99.90;;;;;;5059691;28;20222;-75
2023/07/01 01:26:06;;;;;;;4.22;3.92;;;18.70;99.90;;;;;;5054887;28;20253;-75
2023/07/01 01:28:35;;;;;;;4.13;3.83;;;18.70;99.90;;;;;;5058402;28;20214;-76
2023/07/01 01:31:02;;;;;;;4.00;3.70;;;18.70;99.90;;;;;;5061622;28;20246;-75
2023/07/01 01:33:29;;;;;;;4.00;3.70;;;18.70;99.90;;;;;;5057707;28;20229;-75
2023/07/01 01:36:02;;;;;;;4.43;4.13;;;18.80;99.90;;;;;;5061561;28;20190;-75
2023/07/01 01:38:33;;;;;;;4.28;3.97;;;18.80;99.90;;;;;;5060991;28;20264;-75
2023/07/01 01:41:06;;;;;;;4.88;4.47;;;18.80;99.90;;;;;;5078184;28;20256;-75
2023/07/01 01:43:42;;;;;;;5.03;4.63;;;18.80;99.90;;;;;;5056828;28;20209;-75
2023/07/01 01:46:10;;;;;;;5.28;4.53;;;18.70;99.90;;;;;;5054540;28;20337;-75
2023/07/01 01:48:39;;;;;;;4.70;4.40;;;18.70;99.90;;;;;;5057835;28;20221;-74
2023/07/01 01:51:08;;;;;;;5.20;4.80;;;18.60;99.90;;;;;;5058056;28;20246;-74
2023/07/01 01:53:37;;;;;;;5.53;5.13;;;18.50;99.90;;;;;;5055739;28;20292;-76
2023/07/01 01:56:05;;;;;;;5.18;4.72;;;18.50;99.90;;;;;;5058390;28;20290;-76
2023/07/01 01:58:32;;;;;;;4.90;4.50;;;18.50;99.90;;;;;;5060712;28;20206;-76
2023/07/01 02:01:00;;;;;;;4.65;4.25;;;18.60;99.90;;;;;;5062083;28;21550;-75
2023/07/01 02:03:27;;;;;;;4.43;4.03;;;18.60;99.90;;;;;;5056595;28;20620;-75
2023/07/01 02:05:54;;;;;;;5.00;4.60;;;18.60;99.90;;;;;;5057829;28;22552;-74
2023/07/01 02:08:21;;;;;;;4.60;4.20;;;18.70;99.90;;;;;;5053607;28;20237;-75
2023/07/01 02:10:48;;;;;;;4.43;4.03;;;18.60;99.90;;;;;;5060300;28;20305;-74
2023/07/01 02:13:15;;;;;;;5.30;4.90;;;18.60;99.90;;;;;;5061447;28;20265;-74
2023/07/01 02:15:42;;;;;;;5.35;4.85;;;18.60;99.90;;;;;;5056749;28;20202;-75
2023/07/01 02:18:10;;;;;;;5.25;4.85;;;18.60;99.90;;;;;;5057191;28;20293;-75
2023/07/01 02:20:37;;;;;;;5.13;4.72;;;18.60;99.90;;;;;;5056976;28;20255;-74
2023/07/01 02:23:04;;;;;;;5.72;5.22;;;18.60;99.90;;;;;;5057758;28;20289;-76
2023/07/01 02:25:32;;;;;;;5.28;4.88;;;18.60;99.90;;;;;;5062530;28;20198;-75
2023/07/01 02:27:59;;;;;;;5.70;5.20;;;18.60;99.90;;;;;;5057347;28;20291;-75
2023/07/01 02:30:26;;;;;;;6.20;5.70;;;18.50;99.90;;;;;;5055922;28;20218;-75
2023/07/01 02:32:53;;;;;;;5.60;5.00;;;18.50;99.90;;;;;;5054893;28;20217;-75
2023/07/01 02:35:21;;;;;;;5.07;4.57;;;18.50;99.90;;;;;;5062293;28;20279;-75
2023/07/01 02:37:48;;;;;;;4.80;4.40;;;18.50;99.90;;;;;;5059062;28;20218;-75
2023/07/01 02:40:15;;;;;;;4.18;3.78;;;18.60;99.90;;;;;;5058496;28;20303;-75
2023/07/01 02:42:42;;;;;;;5.20;4.80;;;18.50;99.90;;;;;;5058818;28;20732;-74
2023/07/01 02:45:13;;;;;;;5.88;5.38;;;18.60;99.90;;;;;;5059118;28;20793;-75
2023/07/01 02:47:40;;;;;;;6.07;5.57;;;18.60;99.90;;;;;;5058980;28;20313;-75
2023/07/01 02:50:08;;;;;;;6.28;5.70;;;18.50;99.90;;;;;;5058242;28;20249;-75
2023/07/01 02:52:36;;;;;;;6.50;6.00;;;18.50;99.90;;;;;;5057813;28;20295;-74
2023/07/01 02:55:04;;;;;;;7.00;6.40;;;18.50;99.90;;;;;;5057123;28;20206;-74
2023/07/01 02:57:31;;;;;;;6.13;5.63;;;18.50;99.90;;;;;;5065808;28;20228;-75
2023/07/01 02:59:58;;;;;;;6.03;5.40;;;18.40;99.90;;;;;;5056003;28;20198;-75
2023/07/01 03:02:24;;;;;;;5.47;5.03;;;18.40;99.90;;;;;;5057626;28;20190;-74
2023/07/01 03:04:51;;;;;;;5.70;5.25;;;18.40;99.90;;;;;;5059731;28;20226;-74
2023/07/01 03:07:18;;;;;;;6.63;6.03;;;18.50;99.90;;;;;;5058464;28;20210;-76
2023/07/01 03:09:47;;;;;;;5.55;5.05;;;18.40;99.90;;;;;;5058434;28;20716;-75
2023/07/01 03:12:14;;;;;;;4.97;4.57;;;18.40;99.90;;;;;;5056885;28;20824;-75
2023/07/01 03:14:41;;;;;;;4.80;4.40;;;18.50;99.90;;;;;;5054571;28;20285;-75
2023/07/01 03:17:08;;;;;;;4.82;4.43;;;18.50;99.90;;;;;;5058669;28;20293;-74
2023/07/01 03:19:35;;;;;;;4.75;4.30;;;18.50;99.90;;;;;;5055156;28;20608;-74
2023/07/01 03:22:02;;;;;;;5.28;4.88;;;18.50;99.90;;;;;;5051945;28;20301;-75
2023/07/01 03:24:33;;;;;;;5.40;4.97;;;18.50;99.90;;;;;;5057365;28;20294;-75
2023/07/01 03:27:03;;;;;;;5.70;5.30;;;18.50;99.90;;;;;;5056159;28;20221;-75
2023/07/01 03:29:30;;;;;;;6.07;5.13;;;18.50;99.90;;;;;;5057128;28;20793;-74
2023/07/01 03:31:57;;;;;;;4.43;4.13;;;18.40;99.90;;;;;;5058984;28;20228;-75
2023/07/01 03:34:24;;;;;;;5.10;4.70;;;18.50;99.90;;;;;;5077869;28;20196;-73
2023/07/01 03:36:51;;;;;;;5.13;4.72;;;18.50;99.90;;;;;;5082144;28;20521;-76
2023/07/01 03:39:18;;;;;;;4.97;4.57;;;18.50;99.90;;;;;;5079260;28;20364;-75
2023/07/01 03:41:45;;;;;;;5.18;4.75;;;18.50;99.90;;;;;;5067514;28;20820;-74
2023/07/01 03:44:13;;;;;;;4.90;4.50;;;18.50;99.90;;;;;;5054779;28;20232;-75
2023/07/01 03:46:40;;;;;;;5.03;4.63;;;18.50;99.90;;;;;;5056634;28;20301;-76
2023/07/01 03:49:07;;;;;;;4.45;4.10;;;18.60;99.90;;;;;;5055377;28;20277;-75
2023/07/01 03:51:34;;;;;;;4.93;4.53;;;18.60;99.90;;;;;;5059921;28;20249;-74
2023/07/01 03:54:01;;;;;;;4.50;4.20;;;18.70;99.90;;;;;;5063104;28;20206;-75
2023/07/01 03:56:28;;;;;;;4.63;4.10;;;18.70;99.90;;;;;;5056076;28;20274;-75
2023/07/01 03:58:55;;;;;;;4.50;4.20;;;18.70;99.90;;;;;;5057069;28;20238;-75
2023/07/01 04:01:23;;;;;;;4.50;4.20;;;18.70;99.90;;;;;;5054949;28;20218;-74
2023/07/01 04:03:53;;;;;;;5.28;4.88;;;18.70;99.90;;;;;;5055125;28;20210;-74
2023/07/01 04:06:19;;;;;;;6.43;5.82;;;18.70;99.90;;;;;;5057095;28;20867;-73
2023/07/01 04:08:52;;;;;;;5.40;4.90;;;18.70;99.90;;;;;;5054412;28;20252;-74
2023/07/01 04:11:21;;;;;;;5.05;4.60;;;18.60;99.90;;;;;;5053804;28;20220;-74
2023/07/01 04:13:48;;;;;;;4.68;4.28;;;18.60;99.90;;;;;;5052827;28;20491;-75
2023/07/01 04:16:15;;;;;;;5.05;4.65;;;18.70;99.90;;;;;;5059170;28;20226;-74
2023/07/01 04:18:44;;;;;;;5.07;4.68;;;18.70;99.90;;;;;;5057624;28;20218;-74
2023/07/01 04:21:10;;;;;;;8.23;7.43;;;18.70;99.90;;;;;;5057705;28;20313;-74
2023/07/01 04:23:37;;;;;;;6.38;5.82;;;18.60;99.90;;;;;;5061015;28;20863;-74
2023/07/01 04:26:05;;;;;;;6.80;6.30;;;18.60;99.90;;;;;;5057587;28;20229;-75
2023/07/01 04:28:32;;;;;;;7.70;7.00;;;18.60;99.90;;;;;;5059432;28;20206;-75
2023/07/01 04:30:59;;;;;;;6.78;6.18;;;18.60;99.90;;;;;;5060380;28;20250;-75
2023/07/01 04:33:26;;;;;;;7.63;7.00;;;18.60;99.90;;;;;;5059996;28;20206;-75
2023/07/01 04:35:54;;;;;;;6.90;6.30;;;18.50;99.90;;;;;;5078295;28;20249;-74
2023/07/01 04:38:21;;;;;;;6.70;5.97;;;18.60;99.90;;;;;;5062616;28;20614;-74
2023/07/01 04:40:48;;;;;;;7.43;6.68;;;18.60;99.90;;;;;;5057705;28;20356;-74
2023/07/01 04:43:16;;;;;;;6.28;5.78;;;18.60;99.90;;;;;;5058821;28;20603;-75
2023/07/01 04:45:44;;;;;;;7.00;6.40;;;18.70;99.90;;;;;;5063154;28;20210;-75
2023/07/01 04:48:12;;;;;;;7.15;6.55;;;18.70;99.90;;;;;;5060255;28;20222;-75
2023/07/01 04:50:39;;;;;;;7.13;6.43;;;18.70;99.90;;;;;;5076020;28;20214;-74
2023/07/01 04:53:07;;;;;;;6.50;5.93;;;18.70;99.90;;;;;;5058879;28;20223;-75
2023/07/01 04:55:34;;;;;;;6.57;6.05;;;18.70;99.90;;;;;;5058063;28;20194;-75
2023/07/01 04:58:01;;;;;;;6.05;5.55;;;18.70;99.90;;;;;;5061524;28;20793;-75
2023/07/01 05:00:29;;;;;;;5.78;5.38;;;18.70;99.90;;;;;;5062202;28;20249;-75
2023/07/01 05:02:56;;;;;;;5.38;4.93;;;18.80;99.90;;;;;;5060897;28;20210;-74
2023/07/01 05:05:23;;;;;;;5.15;4.75;;;18.80;99.90;;;;;;5061926;28;20802;-75
2023/07/01 05:07:49;;;;;;;5.60;5.20;;;18.90;99.90;;;;;;5061730;28;20677;-75
2023/07/01 05:10:18;;;;;;;5.05;4.68;;;18.90;99.90;;;;;;5058659;28;20309;-75
2023/07/01 05:12:45;;;;;;;6.43;5.93;;;19.00;99.90;;;;;;5059543;28;20301;-76
2023/07/01 05:15:12;;;;;;;7.00;6.40;;;18.90;99.90;;;;;;5059035;28;20195;-75
2023/07/01 05:17:39;;;;;;;5.25;4.85;;;18.80;99.90;;;;;;5055385;28;20188;-76
2023/07/01 05:20:08;;;;;;;5.40;4.90;;;18.90;99.90;;;;;;5060242;28;20275;-74
2023/07/01 05:22:35;;;;;;;5.88;4.97;;;19.00;99.90;;;;;;5054104;28;20207;-75
2023/07/01 05:25:02;;;;;;;4.70;4.30;;;19.10;99.90;;;;;;5061998;28;20198;-75
2023/07/01 05:27:30;;;;;;;6.20;5.55;;;19.20;99.90;;;;;;5069830;28;20237;-75
2023/07/01 05:29:58;;;;;;;7.32;6.63;;;19.30;99.90;;;;;;5078868;28;20213;-76
2023/07/01 05:32:25;;;;;;;6.60;6.10;;;19.20;99.90;;;;;;5055709;28;20245;-74
2023/07/01 05:34:51;;;;;;;5.97;5.47;;;19.20;99.90;;;;;;5058639;28;20229;-75
2023/07/01 05:37:18;;;;;;;6.20;5.70;;;19.20;99.90;;;;;;5055974;28;20237;-75
2023/07/01 05:39:45;;;;;;;5.82;5.38;;;19.20;99.90;;;;;;5059631;28;20285;-75
2023/07/01 05:42:12;;;;;;;5.65;5.20;;;19.20;99.90;;;;;;5059248;28;20206;-74
2023/07/01 05:44:40;;;;;;;7.68;6.97;;;19.30;99.90;;;;;;5052671;28;20255;-75
2023/07/01 05:47:07;;;;;;;6.47;5.97;;;19.40;99.90;;;;;;5064413;28;20250;-75
2023/07/01 05:49:34;;;;;;;6.20;5.70;;;19.40;99.90;;;;;;5057066;28;20281;-74
2023/07/01 05:52:01;;;;;;;6.03;5.53;;;19.40;99.90;;;;;;5059111;28;20210;-75
2023/07/01 05:54:28;;;;;;;6.00;5.53;;;19.40;99.90;;;;;;5059250;28;20199;-75
2023/07/01 05:56:55;;;;;;;6.20;5.70;;;19.40;99.90;;;;;;5060089;28;20597;-75
2023/07/01 05:59:22;;;;;;;5.18;4.78;;;19.40;99.90;;;;;;5057057;28;20289;-75
2023/07/01 06:01:50;;;;;;;6.65;6.10;;;19.50;99.90;;;;;;5056701;28;20279;-75
2023/07/01 06:04:17;;;;;;;6.07;5.57;;;19.50;99.90;;;;;;5055623;28;20256;-74
2023/07/01 06:06:44;;;;;;;5.32;4.93;;;19.60;99.90;;;;;;5056021;28;20293;-75
2023/07/01 06:09:11;;;;;;;5.25;4.85;;;19.80;99.90;;;;;;5055190;28;20237;-75
2023/07/01 06:11:38;;;;;;;5.90;5.43;;;19.90;99.90;;;;;;5055989;28;20268;-75
2023/07/01 06:14:05;;;;;;;5.55;4.80;;;20.00;99.90;;;;;;5056046;28;20206;-74
2023/07/01 06:16:32;;;;;;;4.90;4.50;;;20.10;99.90;;;;;;5059744;28;20226;-75
2023/07/01 06:19:00;;;;;;;5.32;4.93;;;20.30;99.90;;;;;;5057989;28;20202;-75
2023/07/01 06:21:27;;;;;;;4.80;4.40;;;20.40;99.90;;;;;;5060481;28;20265;-75
2023/07/01 06:23:55;;;;;;;5.10;4.65;;;20.50;99.90;;;;;;5058851;28;20207;-75
2023/07/01 06:26:22;;;;;;;5.53;5.00;;;20.60;99.90;;;;;;5057279;28;20209;-75
2023/07/01 06:28:49;;;;;;;5.10;4.60;;;20.60;99.90;;;;;;5058096;28;20310;-75
2023/07/01 06:31:16;;;;;;;5.70;5.20;;;20.60;99.90;;;;;;5055947;28;20764;-75
2023/07/01 06:33:44;;;;;;;6.05;5.47;;;20.50;99.90;;;;;;5054421;28;20293;-74
2023/07/01 06:36:14;;;;;;;6.07;5.57;;;20.30;99.90;;;;;;5059169;28;20202;-75
2023/07/01 06:38:41;;;;;;;6.10;5.15;;;20.20;99.90;;;;;;5061672;28;20282;-75
2023/07/01 06:41:08;;;;;;;5.35;4.90;;;20.20;99.90;;;;;;5053270;28;20225;-74
2023/07/01 06:43:38;;;;;;;5.25;4.75;;;20.40;99.90;;;;;;5062158;28;20233;-75
2023/07/01 06:46:06;;;;;;;5.30;4.80;;;20.50;99.90;;;;;;5064209;28;20202;-75
2023/07/01 06:48:33;;;;;;;5.95;5.30;;;20.50;99.90;;;;;;5056016;28;20210;-75
2023/07/01 06:51:00;;;;;;;5.47;4.97;;;20.50;99.90;;;;;;5054778;28;20250;-75
2023/07/01 06:53:28;;;;;;;6.65;6.05;;;20.50;99.90;;;;;;5053605;28;20275;-76
2023/07/01 06:55:55;;;;;;;6.60;6.10;;;20.40;99.90;;;;;;5055355;28;20741;-74
2023/07/01 06:58:22;;;;;;;6.57;6.05;;;20.30;99.90;;;;;;5057197;28;20291;-74
2023/07/01 07:00:49;;;;;;;6.85;6.25;;;20.30;99.90;;;;;;5049465;28;20281;-75
2023/07/01 07:03:16;;;;;;;5.95;5.45;;;20.40;99.90;;;;;;5054286;28;20598;-76
2023/07/01 07:05:43;;;;;;;6.00;5.50;;;20.40;99.90;;;;;;5054826;28;20237;-74
2023/07/01 07:08:10;;;;;;;5.38;4.97;;;20.50;99.90;;;;;;5053418;28;20271;-76
2023/07/01 07:10:38;;;;;;;6.43;5.82;;;20.60;99.90;;;;;;5051524;28;20246;-75
2023/07/01 07:13:05;;;;;;;7.15;6.55;;;20.60;99.90;;;;;;5055003;28;20315;-75
2023/07/01 07:15:32;;;;;;;8.05;7.35;;;20.60;99.90;;;;;;5056347;28;20194;-75
2023/07/01 07:18:00;;;;;;;6.63;5.82;;;20.50;99.90;;;;;;5051681;28;20248;-75
2023/07/01 07:20:27;;;;;;;6.93;6.35;;;20.50;99.90;;;;;;5071874;28;20216;-76
2023/07/01 07:22:54;;;;;;;6.38;5.88;;;20.50;99.90;;;;;;5075656;28;20206;-75
2023/07/01 07:25:22;;;;;;;5.93;5.43;;;20.40;99.90;;;;;;5070186;28;20195;-75
2023/07/01 07:27:50;;;;;;;6.80;6.10;;;20.50;99.90;;;;;;5065492;28;20225;-75
2023/07/01 07:30:17;;;;;;;7.55;6.95;;;20.60;99.90;;;;;;5060392;28;20219;-75
2023/07/01 07:32:44;;;;;;;6.28;5.75;;;20.60;99.90;;;;;;5057607;28;20237;-74
2023/07/01 07:35:11;;;;;;;6.20;5.70;;;20.60;99.90;;;;;;5057217;28;20193;-74
2023/07/01 07:37:39;;;;;;;5.97;5.47;;;20.60;99.90;;;;;;5059052;28;20187;-75
2023/07/01 07:40:07;;;;;;;7.25;6.28;;;20.60;99.90;;;;;;5054840;28;20205;-75
2023/07/01 07:42:34;;;;;;;6.95;6.07;;;20.70;99.90;;;;;;5058732;28;20206;-76
2023/07/01 07:45:03;;;;;;;8.25;7.55;;;20.70;99.90;;;;;;5060263;28;20259;-75
2023/07/01 07:47:30;;;;;;;6.85;6.15;;;20.80;99.90;;;;;;5054540;28;20313;-74
2023/07/01 07:49:57;;;;;;;7.70;7.00;;;20.90;99.90;;;;;;5054005;28;20209;-74
2023/07/01 07:52:24;;;;;;;6.40;5.90;;;21.10;99.90;;;;;;5052217;28;20926;-74
2023/07/01 07:54:51;;;;;;;7.40;6.72;;;21.10;99.90;;;;;;5048632;28;20206;-76
2023/07/01 07:57:18;;;;;;;6.68;5.97;;;21.30;99.90;;;;;;5055702;28;20201;-75
2023/07/01 07:59:45;;;;;;;7.13;6.47;;;21.50;99.90;;;;;;5051507;28;20222;-75
2023/07/01 08:02:14;;;;;;;7.28;6.57;;;21.80;99.90;;;;;;5060332;28;20297;-74
2023/07/01 08:04:41;;;;;;;7.13;6.38;;;22.00;99.90;;;;;;5062492;28;20217;-74
2023/07/01 08:07:08;;;;;;;6.65;6.05;;;22.30;99.90;;;;;;5065135;28;20237;-74
2023/07/01 08:09:35;;;;;;;6.80;6.18;;;22.40;99.90;;;;;;5060083;28;20202;-75
2023/07/01 08:12:03;;;;;;;6.22;5.63;;;22.40;99.90;;;;;;5056722;28;20250;-76
2023/07/01 08:14:30;;;;;;;5.82;5.20;;;22.40;99.90;;;;;;5057701;28;20605;-75
2023/07/01 08:16:59;;;;;;;6.03;5.50;;;22.50;99.90;;;;;;5052522;28;20242;-73
2023/07/01 08:19:27;;;;;;;6.30;5.63;;;22.80;99.90;;;;;;5054999;28;20784;-75
2023/07/01 08:21:54;;;;;;;7.05;6.45;;;23.00;99.90;;;;;;5050713;28;20285;-75
2023/07/01 08:24:23;;;;;;;6.68;5.97;;;23.00;99.90;;;;;;5054887;28;20199;-75
2023/07/01 08:26:50;;;;;;;6.85;6.25;;;23.10;99.90;;;;;;5055178;28;20202;-74
2023/07/01 08:29:17;;;;;;;6.70;6.03;;;23.40;99.90;;;;;;5047606;28;20727;-74
2023/07/01 08:31:43;;;;;;;6.97;6.07;;;23.50;99.90;;;;;;5054653;28;20224;-73
2023/07/01 08:34:10;;;;;;;5.90;5.40;;;23.50;99.90;;;;;;5045240;28;20227;-75
2023/07/01 08:36:39;;;;;;;7.20;6.50;;;23.50;99.90;;;;;;5050334;28;20230;-75
2023/07/01 08:39:06;;;;;;;7.30;6.70;;;23.40;99.90;;;;;;5056247;28;20282;-74
2023/07/01 08:41:37;;;;;;;6.38;5.78;;;23.40;99.90;;;;;;5062277;28;20219;-75
2023/07/01 08:44:06;;;;;;;7.07;6.38;;;23.40;99.90;;;;;;5052037;28;20335;-74
2023/07/01 08:46:33;;;;;;;6.60;6.00;;;23.20;99.90;;;;;;5055322;28;20278;-75
2023/07/01 08:49:01;;;;;;;6.25;5.70;;;23.20;99.90;;;;;;5052002;28;20287;-74
2023/07/01 08:51:31;;;;;;;6.63;5.97;;;23.50;99.90;;;;;;5049684;28;20340;-74
2023/07/01 08:54:03;;;;;;;7.00;6.40;;;23.50;99.90;;;;;;5054430;28;20202;-74
2023/07/01 08:56:30;;;;;;;6.82;6.22;;;23.60;99.90;;;;;;5052148;28;20256;-74
2023/07/01 08:58:58;;;;;;;6.82;6.22;;;23.60;99.90;;;;;;5047794;28;21007;-74
2023/07/01 09:01:25;;;;;;;7.05;6.45;;;23.60;99.90;;;;;;5054553;28;20312;-74
2023/07/01 09:03:52;;;;;;;6.45;5.85;;;23.50;99.90;;;;;;5055613;28;20198;-75
2023/07/01 09:06:20;;;;;;;6.88;6.28;;;23.30;99.90;;;;;;5058374;28;20810;-74
2023/07/01 09:08:47;;;;;;;6.40;5.85;;;23.10;99.90;;;;;;5056600;28;20225;-74
2023/07/01 09:11:16;;;;;;;7.50;6.80;;;23.10;99.90;;;;;;5054218;28;20321;-73
2023/07/01 09:13:43;;;;;;;7.75;7.05;;;23.10;99.90;;;;;;5051896;28;21190;-73
2023/07/01 09:16:10;;;;;;;7.13;6.43;;;23.00;99.90;;;;;;5071684;28;20179;-74
2023/07/01 09:18:40;;;;;;;7.82;6.93;;;22.90;99.90;;;;;;5062242;28;20207;-74
2023/07/01 09:21:18;;;;;;;6.00;5.50;;;22.90;99.90;;;;;;5057415;28;20220;-73
2023/07/01 09:23:45;;;;;;;6.78;6.18;;;22.90;99.90;;;;;;5053904;28;20275;-75
2023/07/01 09:26:17;;;;;;;6.60;6.00;;;22.90;99.90;;;;;;5054969;28;20194;-74
2023/07/01 09:28:46;;;;;;;6.38;5.75;;;22.90;99.90;;;;;;5055753;28;20214;-74
2023/07/01 09:31:16;;;;;;;6.00;5.50;;;23.00;99.90;;;;;;5055221;28;20226;-75
2023/07/01 09:33:58;;;;;;;6.65;6.13;;;23.10;99.90;;;;;;5055977;28;20297;-74
2023/07/01 09:36:26;;;;;;;6.60;5.38;;;23.20;99.90;;;;;;5053853;28;20201;-74
2023/07/01 09:38:54;;;;;;;5.97;5.47;;;23.30;99.90;;;;;;5064191;28;20234;-75
2023/07/01 09:41:26;;;;;;;6.20;5.63;;;23.30;99.90;;;;;;5053615;28;20218;-75
2023/07/01 09:43:55;;;;;;;5.45;4.95;;;23.40;99.90;;;;;;5052476;28;20229;-75
2023/07/01 09:46:22;;;;;;;5.93;5.32;;;23.50;99.90;;;;;;5054984;28;20584;-74
2023/07/01 09:48:53;;;;;;;6.00;5.50;;;23.50;99.90;;;;;;5056875;28;20214;-75
2023/07/01 09:51:21;;;;;;;5.82;5.32;;;23.50;99.90;;;;;;5055234;28;20222;-74
2023/07/01 09:53:49;;;;;;;5.93;5.43;;;23.40;99.90;;;;;;5055592;28;20195;-75
2023/07/01 09:56:18;;;;;;;5.95;5.45;;;23.30;99.90;;;;;;5051934;28;20749;-74
2023/07/01 09:58:48;;;;;;;5.70;5.20;;;23.10;99.90;;;;;;5051737;28;20277;-74
2023/07/01 10:01:18;;;;;;;6.20;5.60;;;23.00;99.90;;;;;;5048604;28;20257;-73
2023/07/01 10:03:46;;;;;;;5.53;5.00;;;23.10;99.90;;;;;;5052589;28;20206;-73
2023/07/01 10:06:13;;;;;;;5.85;5.35;;;23.00;99.90;;;;;;5054993;28;20751;-74
2023/07/01 10:08:42;;;;;;;5.50;4.95;;;22.90;99.90;;;;;;5055352;28;20225;-74
2023/07/01 10:11:14;;;;;;;5.07;4.57;;;23.00;99.90;;;;;;5053880;28;20226;-74
2023/07/01 10:13:45;;;;;;;5.97;5.47;;;23.10;99.90;;;;;;5054727;28;20678;-74
2023/07/01 10:16:14;;;;;;;5.50;4.95;;;23.00;99.90;;;;;;5050641;28;20478;-74
2023/07/01 10:18:41;;;;;;;5.60;5.10;;;23.00;99.90;;;;;;5048133;28;20499;-74
2023/07/01 10:21:29;;;;;;;5.93;5.43;;;23.00;99.90;;;;;;5051258;28;20704;-74
2023/07/01 10:23:57;;;;;;;6.28;5.68;;;22.90;99.90;;;;;;5053129;28;20620;-74
2023/07/01 10:26:39;;;;;;;7.93;6.57;;;22.90;99.90;;;;;;5052572;28;20226;-73
2023/07/01 10:29:41;;;;;;;6.15;5.65;;;22.90;99.90;;;;;;5055901;28;20240;-73
2023/07/01 10:32:32;;;;;;;6.20;5.60;;;22.90;99.90;;;;;;5054469;28;20255;-74
2023/07/01 10:35:13;;;;;;;6.22;5.72;;;22.90;99.90;;;;;;5062284;28;20212;-75
2023/07/01 10:37:41;;;;;;;6.05;5.55;;;23.00;99.90;;;;;;5058886;28;20641;-75
2023/07/01 10:40:41;;;;;;;6.53;5.93;;;23.20;99.90;;;;;;5050149;28;20772;-76
2023/07/01 10:43:22;;;;;;;6.95;6.32;;;23.30;99.90;;;;;;5052369;28;20285;-75
2023/07/01 10:46:07;;;;;;;6.70;6.10;;;23.30;99.90;;;;;;5052006;28;20195;-75
2023/07/01 10:48:36;;;;;;;5.97;5.47;;;23.40;99.90;;;;;;5051853;28;20232;-75
2023/07/01 10:51:07;;;;;;;5.82;5.32;;;23.60;99.90;;;;;;5052147;28;20291;-76
2023/07/01 10:53:58;;;;;;;6.38;5.85;;;23.70;99.90;;;;;;5052551;28;20198;-75
2023/07/01 10:56:26;;;;;;;6.25;5.65;;;23.80;99.90;;;;;;5053435;28;20242;-75
2023/07/01 10:59:25;;;;;;;5.93;5.43;;;23.80;99.90;;;;;;5054784;28;20323;-74
2023/07/01 11:01:56;;;;;;;6.07;5.50;;;24.10;99.90;;;;;;5054971;28;20226;-75
2023/07/01 11:04:25;;;;;;;6.30;5.78;;;24.20;99.90;;;;;;5051323;28;20203;-75
2023/07/01 11:06:54;;;;;;;5.90;5.40;;;24.30;99.90;;;;;;5053723;28;20194;-75
2023/07/01 11:09:32;;;;;;;5.82;5.40;;;24.20;99.90;;;;;;5068769;28;20245;-77
2023/07/01 11:12:00;;;;;;;6.55;5.95;;;24.20;99.90;;;;;;5070406;28;20236;-76
2023/07/01 11:14:32;;;;;;;6.72;6.13;;;24.20;99.90;;;;;;5058281;28;20666;-75
2023/07/01 11:17:07;;;;;;;5.82;5.32;;;24.30;99.90;;;;;;5061302;28;20238;-76
2023/07/01 11:19:36;;;;;;;5.88;5.38;;;24.60;99.90;;;;;;5057463;28;20814;-75
2023/07/01 11:22:03;;;;;;;6.28;5.72;;;24.90;99.90;;;;;;5054666;28;20317;-75
2023/07/01 11:24:31;;;;;;;7.30;6.60;;;25.10;99.90;;;;;;5054449;28;20289;-76
2023/07/01 11:27:03;;;;;;;7.45;5.90;;;25.20;99.90;;;;;;5057728;28;20206;-75
2023/07/01 11:29:30;;;;;;;6.22;5.72;;;25.20;99.90;;;;;;5049763;28;20218;-75
2023/07/01 11:32:01;;;;;;;5.38;4.93;;;25.00;99.90;;;;;;5059850;28;20299;-75
2023/07/01 11:34:28;;;;;;;5.30;4.80;;;25.20;99.90;;;;;;5052745;28;21489;-75
2023/07/01 11:36:58;;;;;;;5.18;4.78;;;25.40;99.90;;;;;;5055161;28;20195;-75
2023/07/01 11:39:27;;;;;;;5.88;5.38;;;25.60;99.90;;;;;;5051904;28;20329;-75
2023/07/01 11:41:56;;;;;;;5.93;5.43;;;25.60;99.90;;;;;;5056184;28;20860;-75
2023/07/01 11:44:24;;;;;;;4.68;4.28;;;25.50;99.90;;;;;;5049352;28;20278;-76
2023/07/01 11:46:52;;;;;;;4.85;4.45;;;25.40;99.90;;;;;;5055845;28;20301;-75
2023/07/01 11:49:23;;;;;;;5.70;5.20;;;25.60;99.90;;;;;;5051044;28;20221;-75
2023/07/01 11:51:52;;;;;;;5.10;4.70;;;25.60;99.90;;;;;;5050943;28;20310;-75
2023/07/01 11:54:21;;;;;;;5.22;4.72;;;25.40;99.90;;;;;;5053672;28;20278;-74
2023/07/01 11:56:50;;;;;;;5.05;4.57;;;25.30;99.90;;;;;;5057328;28;20202;-75
2023/07/01 11:59:29;;;;;;;4.43;4.13;;;25.50;99.90;;;;;;5054844;28;20202;-75
2023/07/01 12:01:56;;;;;;;4.15;3.80;;;25.80;99.90;;;;;;5053593;28;20226;-75
2023/07/01 12:04:24;;;;;;;3.63;3.33;;;26.00;99.90;;;;;;5049436;28;20297;-74
2023/07/01 12:09:45;;;;;;;4.22;3.92;;;26.80;99.90;;;;;;5048969;28;20225;-74
2023/07/01 12:12:16;;;;;;;4.38;4.07;;;27.00;99.90;;;;;;5049046;28;20218;-74
2023/07/01 12:14:43;;;;;;;4.53;4.20;;;27.70;99.90;;;;;;5050876;28;20224;-74
2023/07/01 12:17:25;;;;;;;4.63;4.13;;;28.00;99.90;;;;;;5052026;28;20209;-74
2023/07/01 12:19:52;;;;;;;4.72;4.43;;;28.40;99.90;;;;;;5050783;28;20294;-74
2023/07/01 12:22:19;;;;;;;3.80;3.50;;;28.10;99.90;;;;;;5051845;28;20202;-74
2023/07/01 12:24:54;;;;;;;4.82;4.40;;;27.60;99.90;;;;;;5052512;28;20236;-75
2023/07/01 12:27:21;;;;;;;4.38;4.00;;;27.30;99.90;;;;;;5051564;28;20202;-74
2023/07/01 12:29:48;;;;;;;4.18;3.88;;;26.90;99.90;;;;;;5056919;28;20314;-74
2023/07/01 12:32:15;;;;;;;4.25;3.83;;;26.60;99.90;;;;;;5051929;28;20936;-76
2023/07/01 12:34:42;;;;;;;4.60;4.20;;;26.40;99.90;;;;;;5050887;28;20264;-76
2023/07/01 12:37:09;;;;;;;4.47;4.07;;;26.30;99.90;;;;;;5056607;28;20657;-76
2023/07/01 12:39:37;;;;;;;4.65;4.28;;;26.20;99.90;;;;;;5052216;28;20343;-76
2023/07/01 12:42:06;;;;;;;4.07;3.78;;;26.00;99.90;;;;;;5057770;28;20759;-75
2023/07/01 12:44:33;;;;;;;5.15;4.65;;;25.80;99.90;;;;;;5056384;28;20631;-76
2023/07/01 12:47:00;;;;;;;4.30;3.90;;;25.70;99.90;;;;;;5056968;28;20303;-76
2023/07/01 12:49:29;;;;;;;4.10;3.80;;;25.60;99.90;;;;;;5051138;28;20305;-76
2023/07/01 12:51:56;;;;;;;4.82;4.43;;;25.60;99.90;;;;;;5058991;28;20222;-77
2023/07/01 12:54:23;;;;;;;4.50;4.10;;;25.50;99.90;;;;;;5053826;28;20195;-76
2023/07/01 12:56:50;;;;;;;4.97;4.50;;;25.40;99.90;;;;;;5052848;28;20694;-76
2023/07/01 12:59:18;;;;;;;4.03;3.72;;;25.20;99.90;;;;;;5054783;28;20195;-75